Time;durP1;ratioP1;P1;durP2;ratioP2;P2;SDS_P1;SDS_P2;PMS_P1;PMS_P2;Temp;Humidity;BMP_temperature;BMP_pressure;BME280_temperature;BME280_humidity;BME280_pressure;Samples;Min_cycle;Max_cycle;Signal;HPM_P1;HPM_P2
2022/03/21 00:02:03;;;;;;;14.95;8.07;;;;;;;1.95;40.47;101601.81;5050812;28;20029;-46
2022/03/21 00:04:29;;;;;;;14.88;8.35;;;;;;;2.23;41.76;101595.56;5050479;28;20049;-46
2022/03/21 00:06:54;;;;;;;16.40;8.15;;;;;;;2.16;39.53;101604.78;5050611;28;20032;-47
2022/03/21 00:09:19;;;;;;;14.32;8.60;;;;;;;2.34;39.69;101595.66;5050740;28;20017;-47
2022/03/21 00:11:45;;;;;;;14.75;8.48;;;;;;;2.25;39.85;101591.03;5050642;28;20044;-48
2022/03/21 00:14:11;;;;;;;14.98;8.40;;;;;;;2.16;39.69;101589.03;5050535;28;20036;-47
2022/03/21 00:16:38;;;;;;;13.18;7.80;;;;;;;2.10;40.37;101584.19;5050562;28;20500;-47
2022/03/21 00:19:04;;;;;;;14.15;7.15;;;;;;;2.11;39.80;101581.47;5050711;28;20024;-49
2022/03/21 00:21:29;;;;;;;13.77;8.18;;;;;;;2.20;40.52;101581.78;5050367;28;20028;-47
2022/03/21 00:23:55;;;;;;;19.85;8.50;;;;;;;2.19;40.32;101580.09;5050544;28;20428;-48
2022/03/21 00:26:21;;;;;;;13.70;7.65;;;;;;;2.04;40.47;101569.69;5049918;28;20044;-49
2022/03/21 00:28:47;;;;;;;17.23;8.27;;;;;;;2.05;41.04;101573.97;5049977;28;20036;-48
2022/03/21 00:31:13;;;;;;;16.17;8.27;;;;;;;2.18;40.81;101575.78;5049580;28;20025;-49
2022/03/21 00:33:39;;;;;;;15.05;8.43;;;;;;;2.38;40.86;101588.41;5050106;28;20417;-47
2022/03/21 00:36:07;;;;;;;14.48;8.07;;;;;;;2.31;41.14;101584.50;5050433;28;20013;-46
2022/03/21 00:38:34;;;;;;;15.73;8.27;;;;;;;2.53;40.78;101582.09;5050190;28;20024;-47
2022/03/21 00:41:00;;;;;;;13.90;7.90;;;;;;;2.67;40.94;101570.59;5050249;28;20025;-45
2022/03/21 00:43:26;;;;;;;14.20;7.95;;;;;;;2.45;40.83;101570.41;5050106;28;20492;-46
2022/03/21 00:45:54;;;;;;;15.90;7.88;;;;;;;2.10;40.85;101576.31;5050101;28;20025;-46
2022/03/21 00:48:25;;;;;;;12.70;7.25;;;;;;;2.24;40.22;101567.47;5050337;28;20431;-46
2022/03/21 00:50:52;;;;;;;13.57;7.60;;;;;;;2.49;40.59;101571.88;5050278;28;20025;-46
2022/03/21 00:53:18;;;;;;;14.93;7.68;;;;;;;2.24;40.22;101560.44;5054158;28;20453;-45
2022/03/21 00:55:44;;;;;;;14.88;8.40;;;;;;;2.17;40.90;101572.31;5053884;28;20092;-46
2022/03/21 00:58:09;;;;;;;17.25;7.85;;;;;;;2.08;40.83;101565.06;5054061;28;20047;-45
2022/03/21 01:00:35;;;;;;;13.07;7.85;;;;;;;2.14;42.24;101552.34;5054039;28;20040;-47
2022/03/21 01:03:01;;;;;;;12.85;8.15;;;;;;;2.46;40.50;101556.34;5053969;28;20088;-46
2022/03/21 01:05:29;;;;;;;15.57;7.78;;;;;;;2.22;40.47;101553.63;5053541;28;20053;-49
2022/03/21 01:07:56;;;;;;;13.25;6.93;;;;;;;2.32;40.59;101557.28;5053994;28;20031;-47
2022/03/21 01:10:22;;;;;;;13.13;7.40;;;;;;;2.48;40.05;101557.09;5053477;28;20029;-46
2022/03/21 01:12:49;;;;;;;15.05;7.63;;;;;;;2.64;40.28;101554.22;5053397;28;20024;-49
2022/03/21 01:15:19;;;;;;;12.90;7.50;;;;;;;2.48;39.31;101552.66;5053280;28;20473;-47
2022/03/21 01:17:45;;;;;;;11.57;7.35;;;;;;;2.67;39.89;101561.91;5053405;28;20043;-49
2022/03/21 01:20:13;;;;;;;14.00;7.03;;;;;;;2.34;40.61;101551.00;5053407;28;20389;-47
2022/03/21 01:22:39;;;;;;;13.75;7.40;;;;;;;2.60;39.76;101545.69;5053465;28;20052;-49
2022/03/21 01:25:06;;;;;;;14.20;7.60;;;;;;;2.48;39.66;101555.28;5052994;28;20465;-47
2022/03/21 01:27:34;;;;;;;16.52;7.40;;;;;;;2.42;40.79;101547.84;5052903;28;20116;-47
2022/03/21 01:30:00;;;;;;;12.50;6.90;;;;;;;2.40;39.66;101543.59;5052930;28;20051;-46
2022/03/21 01:32:26;;;;;;;16.02;7.90;;;;;;;2.56;40.17;101540.78;5053269;28;20024;-47
2022/03/21 01:34:51;;;;;;;13.38;6.63;;;;;;;2.09;40.76;101537.84;5053558;28;20075;-47
2022/03/21 01:37:16;;;;;;;12.18;7.25;;;;;;;2.05;40.82;101539.00;5053204;28;20101;-49
2022/03/21 01:39:42;;;;;;;13.43;7.40;;;;;;;1.87;40.94;101534.06;5052795;28;20085;-47
2022/03/21 01:42:07;;;;;;;13.93;6.22;;;;;;;1.95;40.62;101525.66;5052658;28;20057;-47
2022/03/21 01:44:33;;;;;;;11.57;6.47;;;;;;;2.17;41.15;101527.66;5052592;28;20076;-50
2022/03/21 01:46:58;;;;;;;16.38;7.43;;;;;;;1.94;40.70;101530.06;5052645;28;20462;-47
2022/03/21 01:49:25;;;;;;;12.70;6.95;;;;;;;2.29;40.16;101529.44;5052738;28;20032;-46
2022/03/21 01:51:50;;;;;;;12.32;7.05;;;;;;;2.40;40.12;101528.72;5052847;28;20079;-47
2022/03/21 01:57:01;;;;;;;13.68;7.55;;;;;;;2.18;41.09;101520.63;5053157;28;20495;-46
2022/03/21 01:59:27;;;;;;;14.20;7.38;;;;;;;2.23;40.18;101523.75;5052798;28;20139;-46
2022/03/21 02:01:53;;;;;;;10.90;6.55;;;;;;;2.01;40.74;101527.84;5052788;28;20033;-47
2022/03/21 02:04:18;;;;;;;12.38;7.65;;;;;;;2.35;40.66;101528.19;5052401;28;20048;-46
2022/03/21 02:06:45;;;;;;;12.30;6.93;;;;;;;2.32;41.08;101529.25;5052797;28;20032;-46
2022/03/21 02:09:11;;;;;;;12.40;6.90;;;;;;;2.14;41.37;101522.63;5052293;28;20109;-46
2022/03/21 02:11:37;;;;;;;12.60;7.25;;;;;;;2.19;41.68;101523.16;5052655;28;20155;-46
2022/03/21 02:14:05;;;;;;;15.00;7.00;;;;;;;2.31;41.05;101519.66;5052364;28;20021;-47
2022/03/21 02:16:33;;;;;;;12.38;6.85;;;;;;;2.21;40.77;101537.03;5052567;28;20032;-47
2022/03/21 02:19:04;;;;;;;13.90;7.35;;;;;;;2.42;40.38;101534.69;5052478;28;20499;-47
2022/03/21 02:22:04;;;;;;;13.07;7.13;;;;;;;2.65;41.57;101530.44;5052464;28;20519;-46
2022/03/21 02:24:52;;;;;;;13.88;7.50;;;;;;;2.82;40.71;101531.03;5041692;28;20492;-46
2022/03/21 02:27:18;;;;;;;16.13;7.75;;;;;;;2.67;41.25;101533.81;5052316;28;20154;-46
2022/03/21 02:29:47;;;;;;;14.48;7.13;;;;;;;2.56;39.49;101535.50;5052294;28;20024;-47
2022/03/21 02:32:12;;;;;;;13.30;7.37;;;;;;;2.26;41.75;101534.88;5050945;28;20397;-48
2022/03/21 02:34:40;;;;;;;12.30;7.40;;;;;;;2.41;40.71;101530.38;5052367;28;20013;-47
2022/03/21 02:37:09;;;;;;;12.32;7.22;;;;;;;2.50;39.66;101537.63;5052946;28;20047;-48
2022/03/21 02:39:36;;;;;;;16.20;7.25;;;;;;;2.44;39.30;101535.41;5052815;28;20036;-46
2022/03/21 02:42:03;;;;;;;14.02;7.35;;;;;;;2.50;41.19;101542.88;5052307;28;20025;-46
2022/03/21 02:44:36;;;;;;;14.75;7.93;;;;;;;2.74;40.30;101534.19;5052625;28;20103;-46
2022/03/21 02:47:02;;;;;;;13.77;7.95;;;;;;;2.74;40.91;101547.34;5052761;28;20431;-47
2022/03/21 02:49:28;;;;;;;12.35;7.20;;;;;;;2.66;39.68;101540.00;5052460;28;20048;-48
2022/03/21 02:51:55;;;;;;;17.10;8.00;;;;;;;2.74;39.78;101534.19;5052438;28;20484;-47
2022/03/21 02:54:22;;;;;;;12.82;7.65;;;;;;;3.12;40.21;101534.09;5052491;28;20063;-47
2022/03/21 02:56:48;;;;;;;15.10;8.13;;;;;;;3.01;38.52;101531.41;5052227;28;20033;-47
2022/03/21 02:59:16;;;;;;;13.15;7.57;;;;;;;2.86;39.59;101538.59;5052429;28;20025;-48
2022/03/21 03:01:42;;;;;;;12.65;7.47;;;;;;;3.05;39.46;101546.00;5052175;28;20389;-47
2022/03/21 03:04:08;;;;;;;10.75;6.93;;;;;;;2.80;39.34;101543.44;5052270;28;20477;-47
2022/03/21 03:06:34;;;;;;;13.82;7.35;;;;;;;2.87;38.79;101537.63;5051894;28;20109;-47
2022/03/21 03:09:00;;;;;;;13.38;7.57;;;;;;;2.77;39.17;101530.53;5051949;28;20472;-46
2022/03/21 03:11:25;;;;;;;13.00;7.68;;;;;;;2.82;39.51;101542.41;5051848;28;20017;-46
2022/03/21 03:13:51;;;;;;;14.50;7.57;;;;;;;2.70;39.91;101544.13;5050829;28;20369;-47
2022/03/21 03:16:17;;;;;;;14.45;7.60;;;;;;;2.72;39.83;101536.09;5051563;28;20218;-49
2022/03/21 03:18:44;;;;;;;13.80;8.13;;;;;;;2.99;39.47;101533.31;5051618;28;20128;-46
2022/03/21 03:21:10;;;;;;;12.90;7.43;;;;;;;2.89;40.11;101532.28;5051888;28;20033;-50
2022/03/21 03:23:38;;;;;;;13.63;7.72;;;;;;;2.92;41.56;101534.69;5052212;28;20025;-49
2022/03/21 03:26:05;;;;;;;16.63;7.93;;;;;;;2.96;38.62;101530.06;5051533;28;20025;-46
2022/03/21 03:28:31;;;;;;;14.98;8.15;;;;;;;2.88;39.28;101527.97;5051948;28;20040;-47
2022/03/21 03:30:59;;;;;;;16.73;7.78;;;;;;;2.78;39.37;101526.94;5051940;28;20029;-46
2022/03/21 03:33:26;;;;;;;16.63;7.90;;;;;;;2.71;39.66;101532.63;5051630;28;20170;-47
2022/03/21 03:35:52;;;;;;;17.45;8.35;;;;;;;2.77;39.65;101514.75;5051504;28;20021;-48
2022/03/21 03:38:19;;;;;;;19.20;8.35;;;;;;;3.11;40.16;101528.94;5051680;28;20116;-48
2022/03/21 03:40:44;;;;;;;14.85;8.15;;;;;;;2.89;38.94;101519.97;5051492;28;20020;-47
2022/03/21 03:43:11;;;;;;;14.38;8.15;;;;;;;2.70;39.12;101509.06;5051863;28;20028;-46
2022/03/21 03:45:37;;;;;;;14.25;7.93;;;;;;;2.59;39.75;101512.50;5051167;28;20028;-47
2022/03/21 03:48:03;;;;;;;14.43;8.18;;;;;;;2.68;39.15;101503.09;5050906;28;20021;-47
2022/03/21 03:50:28;;;;;;;15.98;8.30;;;;;;;2.56;39.62;101507.44;5050966;28;20051;-46
2022/03/21 03:52:54;;;;;;;15.25;7.80;;;;;;;2.56;40.41;101519.75;5051037;28;20017;-46
2022/03/21 03:55:20;;;;;;;15.20;8.45;;;;;;;2.68;39.57;101518.88;5050823;28;20377;-46
2022/03/21 03:57:47;;;;;;;16.23;8.27;;;;;;;2.63;39.02;101521.84;5051612;28;20112;-46
2022/03/21 04:00:14;;;;;;;15.63;8.70;;;;;;;2.39;40.80;101526.19;5051255;28;20056;-46
2022/03/21 04:05:25;;;;;;;14.70;8.63;;;;;;;2.09;41.29;101519.44;5051134;28;20075;-46
2022/03/21 04:07:52;;;;;;;14.27;9.13;;;;;;;2.12;43.21;101512.22;5050987;28;20032;-48
2022/03/21 04:10:17;;;;;;;16.95;9.07;;;;;;;2.04;41.92;101505.81;5051238;28;20260;-46
2022/03/21 04:12:47;;;;;;;15.48;9.07;;;;;;;1.84;42.02;101515.03;5051211;28;20048;-49
2022/03/21 04:15:13;;;;;;;18.23;9.13;;;;;;;1.95;41.12;101505.47;5051145;28;20078;-47
2022/03/21 04:17:38;;;;;;;20.25;10.25;;;;;;;1.89;42.44;101498.03;5050798;28;20024;-48
2022/03/21 04:20:04;;;;;;;35.28;14.57;;;;;;;2.01;41.54;101506.00;5050782;28;20105;-47
2022/03/21 04:22:30;;;;;;;23.70;12.77;;;;;;;1.91;41.66;101483.00;5050873;28;20025;-47
2022/03/21 04:24:56;;;;;;;17.95;9.85;;;;;;;2.13;42.79;101505.16;5051273;28;20029;-47
2022/03/21 04:27:22;;;;;;;19.52;10.00;;;;;;;1.93;42.18;101502.13;5053627;28;20035;-48
2022/03/21 04:29:47;;;;;;;18.38;9.15;;;;;;;1.89;42.55;101505.91;5055219;28;20117;-49
2022/03/21 04:32:13;;;;;;;18.77;9.65;;;;;;;1.97;41.71;101504.56;5054501;28;20020;-49
2022/03/21 04:34:38;;;;;;;19.98;9.63;;;;;;;1.97;41.62;101501.91;5054843;28;20021;-47
2022/03/21 04:37:04;;;;;;;17.08;9.48;;;;;;;2.01;41.80;101506.84;5054512;28;20028;-48
2022/03/21 04:39:29;;;;;;;17.70;9.15;;;;;;;1.91;41.49;101498.75;5054863;28;20112;-47
2022/03/21 04:41:55;;;;;;;16.40;9.02;;;;;;;1.95;41.67;101502.03;5055179;28;20028;-47
2022/03/21 04:44:20;;;;;;;18.75;8.82;;;;;;;2.06;41.75;101507.38;5054432;28;20036;-47
2022/03/21 04:46:46;;;;;;;16.65;8.77;;;;;;;2.28;41.20;101501.47;5052927;28;20419;-47
2022/03/21 04:49:11;;;;;;;16.35;8.80;;;;;;;3.15;41.48;101503.25;5052405;28;20421;-47
2022/03/21 04:51:37;;;;;;;17.52;8.75;;;;;;;2.64;39.98;101493.75;5052426;28;20053;-46
2022/03/21 04:54:02;;;;;;;19.83;9.20;;;;;;;2.72;39.95;101508.03;5052623;28;20527;-47
2022/03/21 04:56:28;;;;;;;15.90;8.50;;;;;;;2.82;39.72;101512.63;5052472;28;20106;-48
2022/03/21 04:58:53;;;;;;;18.00;9.13;;;;;;;2.94;39.73;101501.22;5052337;28;20092;-47
2022/03/21 05:01:19;;;;;;;17.30;8.90;;;;;;;3.04;40.16;101517.19;5053618;28;20013;-47
2022/03/21 05:03:44;;;;;;;20.23;10.07;;;;;;;3.20;39.44;101520.38;5053800;28;20060;-46
2022/03/21 05:06:10;;;;;;;19.85;9.38;;;;;;;3.29;39.97;101518.84;5052795;28;20049;-47
2022/03/21 05:08:35;;;;;;;15.85;8.73;;;;;;;4.45;39.00;101518.88;5053204;28;20494;-49
2022/03/21 05:11:01;;;;;;;16.80;9.65;;;;;;;4.20;38.34;101515.50;5053179;28;20071;-49
2022/03/21 05:13:27;;;;;;;18.08;9.63;;;;;;;4.16;38.13;101518.50;5046877;28;20028;-54
2022/03/21 05:15:53;;;;;;;16.95;9.48;;;;;;;4.33;37.67;101525.94;5053932;28;20495;-50
2022/03/21 05:18:18;;;;;;;17.15;9.77;;;;;;;4.24;37.96;101529.28;5054040;28;20100;-49
2022/03/21 05:20:44;;;;;;;18.73;9.43;;;;;;;5.42;50.15;101540.97;5052806;28;20353;-50
2022/03/21 05:31:22;;;;;;;18.63;9.80;;;;;;;4.61;37.57;101539.63;5052863;28;20040;-48
2022/03/21 05:36:32;;;;;;;21.52;10.13;;;;;;;4.93;37.25;101544.97;5051576;28;20059;-47
2022/03/21 05:38:58;;;;;;;21.80;11.05;;;;;;;5.82;36.30;101545.59;5050961;28;20061;-49
2022/03/21 05:41:25;;;;;;;17.70;10.15;;;;;;;6.32;34.18;101557.34;5051415;28;20695;-48
2022/03/21 05:43:50;;;;;;;19.33;10.70;;;;;;;5.95;35.13;101557.78;5051501;28;20033;-51
2022/03/21 05:46:16;;;;;;;22.58;10.50;;;;;;;6.17;35.43;101562.97;5051877;28;20032;-50
2022/03/21 05:48:51;;;;;;;20.23;10.93;;;;;;;6.00;34.88;101559.13;5052157;28;20017;-48
2022/03/21 05:51:29;;;;;;;80.38;37.22;;;;;;;6.34;35.90;101565.97;5051124;28;20412;-47
2022/03/21 05:53:56;;;;;;;18.27;11.50;;;;;;;6.59;35.38;101552.31;5051146;28;20104;-50
2022/03/21 05:56:25;;;;;;;55.28;27.02;;;;;;;6.74;34.59;101563.38;5051696;28;20281;-50
2022/03/21 05:58:51;;;;;;;29.30;15.63;;;;;;;7.71;33.35;101564.50;5051683;28;20021;-48
2022/03/21 06:01:22;;;;;;;18.70;10.07;;;;;;;7.55;31.92;101570.38;5052977;28;20025;-48
2022/03/21 06:03:54;;;;;;;16.02;9.57;;;;;;;7.59;32.71;101566.44;5052879;28;20184;-46
2022/03/21 06:06:23;;;;;;;19.38;10.60;;;;;;;7.52;32.46;101571.50;5051829;28;20536;-48
2022/03/21 06:08:50;;;;;;;18.23;10.15;;;;;;;7.44;32.23;101573.97;5051960;28;20071;-47
2022/03/21 06:11:15;;;;;;;17.02;10.30;;;;;;;7.69;34.28;101577.03;5052499;28;20349;-49
2022/03/21 06:13:44;;;;;;;18.70;10.38;;;;;;;7.76;33.95;101576.34;5052413;28;20017;-48
2022/03/21 06:16:11;;;;;;;15.23;9.60;;;;;;;8.08;32.96;101561.94;5052772;28;20017;-49
2022/03/21 06:18:37;;;;;;;16.75;9.50;;;;;;;8.35;33.14;101579.75;5052069;28;20017;-50
2022/03/21 06:21:05;;;;;;;17.98;10.32;;;;;;;9.00;30.24;101574.50;5051987;28;20032;-47
2022/03/21 06:23:31;;;;;;;16.60;9.80;;;;;;;9.25;29.37;101577.38;5052126;28;20392;-47
2022/03/21 06:25:58;;;;;;;17.42;10.05;;;;;;;8.98;29.38;101580.91;5051710;28;20032;-46
2022/03/21 06:28:25;;;;;;;17.48;9.90;;;;;;;9.02;29.95;101579.63;5051799;28;20031;-47
2022/03/21 06:30:51;;;;;;;21.38;10.90;;;;;;;9.38;29.15;101577.03;5052195;28;20025;-49
2022/03/21 06:33:22;;;;;;;16.38;10.30;;;;;;;9.58;28.38;101572.41;5052017;28;20035;-49
2022/03/21 06:35:48;;;;;;;18.25;10.85;;;;;;;9.34;29.32;101567.69;5052046;28;20099;-48
2022/03/21 06:38:14;;;;;;;15.35;9.40;;;;;;;9.39;28.85;101574.22;5051497;28;20056;-49
2022/03/21 06:40:40;;;;;;;15.75;10.10;;;;;;;9.42;28.44;101572.25;5052031;28;20119;-49
2022/03/21 06:43:05;;;;;;;17.00;10.35;;;;;;;9.43;28.41;101568.63;5051521;28;20496;-47
2022/03/21 06:45:32;;;;;;;20.33;9.75;;;;;;;9.50;28.28;101569.66;5051693;28;20424;-51
2022/03/21 06:47:58;;;;;;;17.88;10.30;;;;;;;9.69;27.71;101573.97;5051715;28;20451;-47
2022/03/21 06:50:23;;;;;;;20.13;9.55;;;;;;;10.12;27.60;101573.16;5051032;28;20021;-49
2022/03/21 06:52:49;;;;;;;14.93;9.25;;;;;;;10.35;27.15;101570.00;5051963;28;20032;-48
2022/03/21 06:55:14;;;;;;;16.05;9.48;;;;;;;10.67;26.54;101568.53;5051483;28;20024;-47
2022/03/21 06:57:40;;;;;;;13.52;9.05;;;;;;;10.51;26.81;101540.84;5051493;28;20513;-48
2022/03/21 07:00:07;;;;;;;17.02;10.20;;;;;;;10.60;26.85;101564.81;5051483;28;20021;-50
2022/03/21 07:02:33;;;;;;;15.70;9.52;;;;;;;10.64;26.58;101567.03;5051601;28;20162;-49
2022/03/21 07:04:59;;;;;;;20.45;10.02;;;;;;;10.48;26.63;101565.09;5051313;28;20136;-48
2022/03/21 07:07:25;;;;;;;17.27;10.02;;;;;;;10.17;27.42;101565.56;5051241;28;20549;-49
2022/03/21 07:09:51;;;;;;;15.60;9.90;;;;;;;10.73;27.20;101568.72;5051246;28;20515;-51
2022/03/21 07:12:18;;;;;;;18.50;9.82;;;;;;;11.38;25.87;101558.41;5051437;28;20024;-50
2022/03/21 07:14:45;;;;;;;15.80;9.93;;;;;;;11.19;26.66;101562.19;5051692;28;20028;-51
2022/03/21 07:17:10;;;;;;;18.00;11.00;;;;;;;11.77;25.93;101557.78;5051668;28;20094;-49
2022/03/21 07:19:37;;;;;;;15.65;9.52;;;;;;;11.68;25.17;101544.44;5051564;28;20028;-50
2022/03/21 07:22:03;;;;;;;19.08;10.38;;;;;;;12.13;25.15;101551.09;5050061;28;20028;-48
2022/03/21 07:24:28;;;;;;;14.45;9.25;;;;;;;12.18;25.06;101549.75;5051656;28;20033;-50
2022/03/21 07:26:54;;;;;;;19.25;10.10;;;;;;;12.70;24.33;101557.28;5051771;28;20403;-50
2022/03/21 07:29:19;;;;;;;17.90;10.00;;;;;;;12.35;23.42;101559.38;5051118;28;20480;-48
2022/03/21 07:31:45;;;;;;;17.00;9.75;;;;;;;11.95;23.58;101547.78;5051008;28;20486;-50
2022/03/21 07:34:10;;;;;;;15.05;8.93;;;;;;;12.07;23.64;101546.44;5051049;28;20043;-49
2022/03/21 07:36:35;;;;;;;15.63;9.07;;;;;;;12.39;23.14;101544.69;5051175;28;20412;-48
2022/03/21 07:39:03;;;;;;;15.73;9.65;;;;;;;12.37;23.29;101540.53;5051038;28;20029;-50
2022/03/21 07:41:29;;;;;;;15.32;9.57;;;;;;;12.73;22.93;101542.75;5050819;28;20051;-50
2022/03/21 07:43:57;;;;;;;16.48;9.13;;;;;;;12.97;22.88;101542.63;5050007;28;20029;-49
2022/03/21 07:49:06;;;;;;;14.70;8.98;;;;;;;12.98;22.70;101538.09;5050973;28;20047;-51
2022/03/21 07:51:32;;;;;;;13.48;9.10;;;;;;;13.01;22.19;101535.91;5050627;28;20024;-49
2022/03/21 07:53:57;;;;;;;16.55;9.45;;;;;;;12.05;23.04;101534.25;5050717;28;20079;-48
2022/03/21 07:56:23;;;;;;;13.45;8.70;;;;;;;11.75;23.04;101520.59;5050883;28;20033;-51
2022/03/21 07:58:49;;;;;;;17.83;9.95;;;;;;;11.52;23.33;101523.94;5049517;28;20041;-49
2022/03/21 08:01:14;;;;;;;19.90;10.40;;;;;;;11.44;23.35;101526.59;5050314;28;20060;-48
2022/03/21 08:03:40;;;;;;;17.25;9.45;;;;;;;11.84;23.40;101524.94;5050641;28;20037;-47
2022/03/21 08:06:10;;;;;;;18.60;9.43;;;;;;;11.82;23.65;101521.59;5050172;28;20136;-49
2022/03/21 08:08:36;;;;;;;13.35;9.00;;;;;;;12.18;23.40;101523.88;5051058;28;20087;-47
2022/03/21 08:11:03;;;;;;;13.48;9.02;;;;;;;12.20;23.32;101524.53;5050402;28;20052;-47
2022/03/21 08:13:29;;;;;;;14.10;9.55;;;;;;;13.29;22.20;101524.72;5050251;28;20028;-51
2022/03/21 08:15:54;;;;;;;14.93;8.80;;;;;;;13.44;22.36;101519.44;5050633;28;20142;-48
2022/03/21 08:18:20;;;;;;;15.05;8.45;;;;;;;12.51;22.23;101505.94;5050194;28;20110;-49
2022/03/21 08:20:45;;;;;;;17.25;8.95;;;;;;;12.10;23.24;101516.72;5049525;28;20412;-49
2022/03/21 08:23:13;;;;;;;13.25;8.63;;;;;;;12.13;22.83;101515.56;5049674;28;20057;-49
2022/03/21 08:25:41;;;;;;;13.10;8.32;;;;;;;13.21;22.14;101514.06;5050023;28;20036;-49
2022/03/21 08:28:08;;;;;;;14.07;9.00;;;;;;;13.44;21.85;101514.94;5050049;28;20078;-48
2022/03/21 08:30:35;;;;;;;12.60;7.63;;;;;;;11.73;22.80;101511.94;5050103;28;20055;-50
2022/03/21 08:33:06;;;;;;;11.55;8.10;;;;;;;11.76;22.92;101516.91;5050177;28;20055;-48
2022/03/21 08:35:32;;;;;;;12.13;7.93;;;;;;;11.85;23.17;101507.09;5050396;28;20047;-47
2022/03/21 08:37:58;;;;;;;12.73;7.65;;;;;;;12.16;23.50;101507.22;5050229;28;20055;-50
2022/03/21 08:40:24;;;;;;;10.90;7.22;;;;;;;12.54;22.75;101511.94;5050336;28;20485;-47
2022/03/21 08:42:50;;;;;;;16.42;8.50;;;;;;;12.59;22.74;101505.06;5050181;28;20029;-49
2022/03/21 08:45:15;;;;;;;12.68;8.20;;;;;;;12.61;22.36;101510.25;5048772;28;20032;-47
2022/03/21 08:47:42;;;;;;;14.45;7.85;;;;;;;12.73;22.69;101498.16;5050393;28;20029;-48
2022/03/21 08:50:09;;;;;;;10.93;7.28;;;;;;;12.78;22.42;101502.97;5049698;28;20405;-49
2022/03/21 08:52:35;;;;;;;10.27;6.93;;;;;;;13.17;21.77;101494.88;5050350;28;20483;-48
2022/03/21 08:55:01;;;;;;;12.55;7.78;;;;;;;12.62;22.27;101491.38;5050022;28;20044;-49
2022/03/21 08:57:27;;;;;;;11.88;7.85;;;;;;;11.77;22.98;101496.44;5050095;28;20057;-49
2022/03/21 08:59:52;;;;;;;11.73;7.50;;;;;;;11.65;23.56;101496.78;5049644;28;20118;-48
2022/03/21 09:02:18;;;;;;;13.52;7.65;;;;;;;11.49;23.46;101492.25;5050010;28;20025;-49
2022/03/21 09:04:45;;;;;;;13.38;6.93;;;;;;;11.39;24.75;101496.94;5049727;28;20524;-49
2022/03/21 09:07:11;;;;;;;12.10;7.25;;;;;;;12.11;23.45;101482.91;5049764;28;20497;-50
2022/03/21 09:09:37;;;;;;;11.57;7.75;;;;;;;12.35;23.92;101486.47;5049853;28;20029;-47
2022/03/21 09:12:03;;;;;;;11.32;7.78;;;;;;;12.42;22.95;101487.47;5050018;28;20048;-48
2022/03/21 09:14:28;;;;;;;15.95;7.78;;;;;;;12.47;23.12;101487.75;5053591;28;20060;-50
2022/03/21 09:16:56;;;;;;;11.68;7.60;;;;;;;12.24;22.66;101474.31;5053632;28;20104;-52
2022/03/21 09:19:23;;;;;;;12.57;8.68;;;;;;;12.30;23.69;101479.00;5053546;28;20065;-50
2022/03/21 09:21:50;;;;;;;14.23;8.63;;;;;;;12.40;23.06;101481.47;5053936;28;20028;-49
2022/03/21 09:24:15;;;;;;;14.70;8.57;;;;;;;12.65;23.31;101488.34;5053239;28;20113;-47
2022/03/21 09:26:41;;;;;;;14.77;7.88;;;;;;;12.46;23.52;101483.44;5053621;28;20412;-48
2022/03/21 09:29:06;;;;;;;13.75;7.88;;;;;;;12.62;22.85;101475.34;5053116;28;20594;-50
2022/03/21 09:31:32;;;;;;;13.88;8.60;;;;;;;12.70;22.44;101475.31;5053044;28;20080;-50
2022/03/21 09:33:59;;;;;;;11.48;7.80;;;;;;;12.59;22.86;101469.53;5053389;28;20104;-48
2022/03/21 09:36:25;;;;;;;12.65;7.82;;;;;;;12.72;22.54;101475.13;5053419;28;20032;-49
2022/03/21 09:38:51;;;;;;;9.88;6.68;;;;;;;12.39;22.50;101464.59;5053103;28;20029;-47
2022/03/21 09:41:22;;;;;;;10.05;6.70;;;;;;;12.51;22.14;101465.88;5052842;28;20079;-47
2022/03/21 09:43:52;;;;;;;12.00;7.57;;;;;;;12.56;22.80;101464.53;5053060;28;20112;-47
2022/03/21 09:46:17;;;;;;;;;;;;;;;11.90;22.39;101464.78;5052842;28;20074;-51
2022/03/21 09:48:48;;;;;;;11.27;6.97;;;;;;;11.81;22.76;101460.41;5053073;28;19913;-47
2022/03/21 09:51:13;;;;;;;11.90;7.82;;;;;;;11.78;23.57;101450.06;5052935;28;20029;-51
2022/03/21 09:53:39;;;;;;;13.15;7.78;;;;;;;11.38;23.37;101449.13;5052952;28;20139;-51
2022/03/21 09:56:07;;;;;;;11.38;7.75;;;;;;;11.10;24.18;101460.09;5052778;28;20021;-48
2022/03/21 09:58:33;;;;;;;10.20;7.20;;;;;;;11.52;24.46;101451.13;5052359;28;20032;-49
2022/03/21 10:00:58;;;;;;;11.95;7.57;;;;;;;11.75;24.02;101453.94;5052612;28;20029;-49
2022/03/21 10:03:24;;;;;;;12.57;7.68;;;;;;;12.01;23.09;101443.03;5052900;28;20059;-48
2022/03/21 10:05:50;;;;;;;10.88;7.68;;;;;;;11.88;23.51;101445.38;5051983;28;20508;-49
2022/03/21 10:08:24;;;;;;;10.60;6.90;;;;;;;11.46;24.13;101443.78;5052192;28;20036;-49
2022/03/21 10:10:59;;;;;;;10.73;7.13;;;;;;;11.42;23.79;101437.13;5052202;28;20107;-48
2022/03/21 10:13:28;;;;;;;11.32;7.55;;;;;;;11.61;23.19;101436.75;5052295;28;20047;-48
2022/03/21 10:16:19;;;;;;;12.20;7.40;;;;;;;11.74;23.74;101441.56;5052606;28;20489;-49
2022/03/21 10:18:54;;;;;;;16.98;9.65;;;;;;;11.57;23.43;101440.75;5051057;28;20037;-47
2022/03/21 10:21:24;;;;;;;10.68;7.38;;;;;;;11.30;23.93;101431.31;5052270;28;20423;-48
2022/03/21 10:24:10;;;;;;;16.17;7.70;;;;;;;11.18;23.36;101435.31;5051522;28;20094;-51
2022/03/21 10:26:46;;;;;;;12.57;7.65;;;;;;;10.93;23.41;101428.13;5051805;28;20055;-47
2022/03/21 10:29:12;;;;;;;15.18;7.38;;;;;;;11.16;24.17;101427.47;5051447;28;20075;-49
2022/03/21 10:31:39;;;;;;;19.10;7.63;;;;;;;11.15;25.43;101426.63;5051412;28;20132;-47
2022/03/21 10:34:15;;;;;;;11.18;7.65;;;;;;;11.18;24.63;101412.16;5051475;28;20025;-49
2022/03/21 10:37:07;;;;;;;8.82;6.40;;;;;;;11.49;24.12;101416.78;5051731;28;20547;-48
2022/03/21 10:39:35;;;;;;;9.68;6.70;;;;;;;11.83;23.73;101410.41;5051752;28;20104;-50
2022/03/21 10:42:05;;;;;;;10.43;7.13;;;;;;;12.84;23.73;101408.78;5051548;28;20025;-47
2022/03/21 10:44:33;;;;;;;10.35;6.72;;;;;;;12.88;23.13;101410.06;5051740;28;20043;-48
2022/03/21 10:47:00;;;;;;;13.10;7.53;;;;;;;12.81;22.35;101401.94;5051475;28;20031;-47
2022/03/21 10:49:33;;;;;;;12.73;7.35;;;;;;;12.48;23.01;101391.44;5051832;28;20052;-47
2022/03/21 10:52:00;;;;;;;11.80;7.45;;;;;;;11.51;23.42;101380.13;5050966;28;20028;-48
2022/03/21 10:54:41;;;;;;;11.60;7.00;;;;;;;12.61;22.81;101387.38;5051131;28;20028;-48
2022/03/21 10:57:07;;;;;;;;;;;;;;;12.16;23.08;101380.94;5051574;28;20031;-48
2022/03/21 10:59:33;;;;;;;13.63;6.75;;;;;;;12.01;22.93;101378.19;5050915;28;20394;-47
2022/03/21 11:02:17;;;;;;;9.75;6.75;;;;;;;12.23;23.09;101380.09;5051283;28;20025;-47
2022/03/21 11:04:47;;;;;;;11.65;6.90;;;;;;;12.96;23.41;101377.13;5051308;28;20493;-49
2022/03/21 11:07:13;;;;;;;11.35;6.95;;;;;;;13.62;21.88;101372.84;5051529;28;20445;-48
2022/03/21 11:09:42;;;;;;;10.85;6.90;;;;;;;13.29;22.19;101378.50;5051035;28;20143;-49
2022/03/21 11:12:09;;;;;;;12.02;7.15;;;;;;;12.60;23.05;101369.69;5051057;28;20480;-48
2022/03/21 11:14:39;;;;;;;10.38;6.97;;;;;;;12.60;22.82;101356.34;5050989;28;20461;-48
2022/03/21 11:17:05;;;;;;;;;;;;;;;13.78;22.15;101369.16;5051231;28;20504;-48
2022/03/21 11:19:32;;;;;;;11.63;7.15;;;;;;;13.31;21.50;101367.66;5050850;28;20375;-48
2022/03/21 11:22:00;;;;;;;10.40;7.15;;;;;;;13.35;21.70;101365.47;5050926;28;20024;-48
2022/03/21 11:24:30;;;;;;;10.27;6.82;;;;;;;12.98;21.70;101351.03;5051271;28;20069;-49
2022/03/21 11:27:13;;;;;;;;;;;;;;;13.95;21.75;101348.38;5051434;28;20104;-49
2022/03/21 11:29:57;;;;;;;11.50;7.28;;;;;;;14.07;21.14;101357.59;5050915;28;19916;-48
2022/03/21 11:32:44;;;;;;;9.68;6.60;;;;;;;13.06;21.98;101357.16;5050522;28;20028;-48
2022/03/21 11:35:23;;;;;;;10.65;7.00;;;;;;;13.05;21.74;101343.97;5050431;28;20040;-47
2022/03/21 11:37:50;;;;;;;10.55;6.78;;;;;;;13.53;20.88;101338.34;5050570;28;20039;-48
2022/03/21 11:40:32;;;;;;;15.05;7.03;;;;;;;13.07;21.60;101340.09;5050735;28;20017;-47
2022/03/21 11:43:19;;;;;;;10.27;6.40;;;;;;;12.89;21.47;101332.41;5050893;28;20032;-46